sensor_id;sensor_type;location;lat;lon;timestamp;P1;durP1;ratioP1;P2;durP2;ratioP2
3587;SDS011;1808;53.596;9.972;2022-07-23T00:01:50;6.72;;;1.80;;
3587;SDS011;1808;53.596;9.972;2022-07-23T00:04:17;5.43;;;1.95;;
3587;SDS011;1808;53.596;9.972;2022-07-23T00:06:43;4.80;;;1.67;;
3587;SDS011;1808;53.596;9.972;2022-07-23T00:09:09;3.88;;;1.77;;
3587;SDS011;1808;53.596;9.972;2022-07-23T00:11:36;5.28;;;1.45;;
3587;SDS011;1808;53.596;9.972;2022-07-23T00:14:02;4.95;;;1.70;;
3587;SDS011;1808;53.596;9.972;2022-07-23T00:16:30;3.78;;;1.48;;
3587;SDS011;1808;53.596;9.972;2022-07-23T00:18:57;4.95;;;1.60;;
3587;SDS011;1808;53.596;9.972;2022-07-23T00:21:26;3.45;;;1.30;;
3587;SDS011;1808;53.596;9.972;2022-07-23T00:23:53;6.22;;;1.80;;
3587;SDS011;1808;53.596;9.972;2022-07-23T00:26:19;4.38;;;1.60;;
3587;SDS011;1808;53.596;9.972;2022-07-23T00:28:45;4.05;;;1.35;;
3587;SDS011;1808;53.596;9.972;2022-07-23T00:31:12;4.57;;;2.15;;
3587;SDS011;1808;53.596;9.972;2022-07-23T00:33:40;4.25;;;1.55;;
3587;SDS011;1808;53.596;9.972;2022-07-23T00:36:06;5.88;;;1.77;;
3587;SDS011;1808;53.596;9.972;2022-07-23T00:38:33;6.72;;;1.50;;
3587;SDS011;1808;53.596;9.972;2022-07-23T00:41:00;2.85;;;1.23;;
3587;SDS011;1808;53.596;9.972;2022-07-23T00:43:27;4.25;;;1.60;;
3587;SDS011;1808;53.596;9.972;2022-07-23T00:45:53;4.82;;;1.42;;
3587;SDS011;1808;53.596;9.972;2022-07-23T00:48:19;4.15;;;1.40;;
3587;SDS011;1808;53.596;9.972;2022-07-23T00:50:47;5.07;;;1.58;;
3587;SDS011;1808;53.596;9.972;2022-07-23T00:53:14;2.33;;;1.40;;
3587;SDS011;1808;53.596;9.972;2022-07-23T00:55:41;4.40;;;1.88;;
3587;SDS011;1808;53.596;9.972;2022-07-23T00:58:08;3.30;;;1.63;;
3587;SDS011;1808;53.596;9.972;2022-07-23T01:00:35;4.65;;;1.45;;
3587;SDS011;1808;53.596;9.972;2022-07-23T01:03:01;4.90;;;1.40;;
3587;SDS011;1808;53.596;9.972;2022-07-23T01:05:27;4.35;;;1.38;;
3587;SDS011;1808;53.596;9.972;2022-07-23T01:07:55;3.55;;;1.30;;
3587;SDS011;1808;53.596;9.972;2022-07-23T01:10:22;4.13;;;1.55;;
3587;SDS011;1808;53.596;9.972;2022-07-23T01:12:58;5.65;;;1.67;;
3587;SDS011;1808;53.596;9.972;2022-07-23T01:15:25;2.85;;;1.40;;
3587;SDS011;1808;53.596;9.972;2022-07-23T01:17:51;4.70;;;1.60;;
3587;SDS011;1808;53.596;9.972;2022-07-23T01:20:19;8.38;;;1.80;;
3587;SDS011;1808;53.596;9.972;2022-07-23T01:22:47;3.15;;;1.60;;
3587;SDS011;1808;53.596;9.972;2022-07-23T01:25:14;4.00;;;1.45;;
3587;SDS011;1808;53.596;9.972;2022-07-23T01:27:41;3.40;;;1.40;;
3587;SDS011;1808;53.596;9.972;2022-07-23T01:30:08;6.95;;;1.60;;
3587;SDS011;1808;53.596;9.972;2022-07-23T01:32:35;4.38;;;1.80;;
3587;SDS011;1808;53.596;9.972;2022-07-23T01:35:01;4.60;;;1.50;;
3587;SDS011;1808;53.596;9.972;2022-07-23T01:37:28;3.85;;;1.50;;
3587;SDS011;1808;53.596;9.972;2022-07-23T01:39:55;2.63;;;1.40;;
3587;SDS011;1808;53.596;9.972;2022-07-23T01:42:22;5.05;;;1.58;;
3587;SDS011;1808;53.596;9.972;2022-07-23T01:44:48;6.07;;;1.55;;
3587;SDS011;1808;53.596;9.972;2022-07-23T01:47:15;3.92;;;1.45;;
3587;SDS011;1808;53.596;9.972;2022-07-23T01:49:42;4.82;;;1.25;;
3587;SDS011;1808;53.596;9.972;2022-07-23T01:52:08;3.30;;;1.42;;
3587;SDS011;1808;53.596;9.972;2022-07-23T01:54:36;6.15;;;1.60;;
3587;SDS011;1808;53.596;9.972;2022-07-23T01:57:04;5.30;;;1.40;;
3587;SDS011;1808;53.596;9.972;2022-07-23T01:59:31;3.88;;;1.27;;
3587;SDS011;1808;53.596;9.972;2022-07-23T02:01:57;5.60;;;1.58;;
3587;SDS011;1808;53.596;9.972;2022-07-23T02:04:24;5.72;;;1.70;;
3587;SDS011;1808;53.596;9.972;2022-07-23T02:06:51;5.28;;;1.67;;
3587;SDS011;1808;53.596;9.972;2022-07-23T02:09:18;6.40;;;1.77;;
3587;SDS011;1808;53.596;9.972;2022-07-23T02:11:45;5.28;;;1.33;;
3587;SDS011;1808;53.596;9.972;2022-07-23T02:14:12;5.20;;;1.63;;
3587;SDS011;1808;53.596;9.972;2022-07-23T02:16:39;6.20;;;1.60;;
3587;SDS011;1808;53.596;9.972;2022-07-23T02:19:05;3.38;;;1.23;;
3587;SDS011;1808;53.596;9.972;2022-07-23T02:21:32;5.80;;;1.80;;
3587;SDS011;1808;53.596;9.972;2022-07-23T02:23:58;4.63;;;1.48;;
3587;SDS011;1808;53.596;9.972;2022-07-23T02:26:24;5.03;;;1.58;;
3587;SDS011;1808;53.596;9.972;2022-07-23T02:28:50;5.03;;;1.48;;
3587;SDS011;1808;53.596;9.972;2022-07-23T02:31:19;6.53;;;1.67;;
3587;SDS011;1808;53.596;9.972;2022-07-23T02:33:45;3.15;;;1.52;;
3587;SDS011;1808;53.596;9.972;2022-07-23T02:36:11;3.03;;;1.50;;
3587;SDS011;1808;53.596;9.972;2022-07-23T02:38:38;6.20;;;2.28;;
3587;SDS011;1808;53.596;9.972;2022-07-23T02:41:04;4.82;;;1.70;;
3587;SDS011;1808;53.596;9.972;2022-07-23T02:43:30;3.67;;;1.27;;
3587;SDS011;1808;53.596;9.972;2022-07-23T02:45:57;7.30;;;2.42;;
3587;SDS011;1808;53.596;9.972;2022-07-23T02:48:24;5.40;;;1.77;;
3587;SDS011;1808;53.596;9.972;2022-07-23T02:50:51;4.53;;;1.80;;
3587;SDS011;1808;53.596;9.972;2022-07-23T02:53:17;3.33;;;1.50;;
3587;SDS011;1808;53.596;9.972;2022-07-23T02:55:44;4.75;;;1.60;;
3587;SDS011;1808;53.596;9.972;2022-07-23T02:58:10;8.35;;;1.70;;
3587;SDS011;1808;53.596;9.972;2022-07-23T03:00:37;4.10;;;1.58;;
3587;SDS011;1808;53.596;9.972;2022-07-23T03:03:03;6.15;;;1.85;;
3587;SDS011;1808;53.596;9.972;2022-07-23T03:05:31;3.90;;;1.70;;
3587;SDS011;1808;53.596;9.972;2022-07-23T03:07:57;9.85;;;1.73;;
3587;SDS011;1808;53.596;9.972;2022-07-23T03:10:24;6.30;;;1.85;;
3587;SDS011;1808;53.596;9.972;2022-07-23T03:12:50;6.90;;;1.75;;
3587;SDS011;1808;53.596;9.972;2022-07-23T03:15:16;5.85;;;1.92;;
3587;SDS011;1808;53.596;9.972;2022-07-23T03:17:43;6.45;;;1.90;;
3587;SDS011;1808;53.596;9.972;2022-07-23T03:20:09;3.65;;;1.75;;
3587;SDS011;1808;53.596;9.972;2022-07-23T03:22:37;5.15;;;1.92;;
3587;SDS011;1808;53.596;9.972;2022-07-23T03:25:03;5.07;;;2.35;;
3587;SDS011;1808;53.596;9.972;2022-07-23T03:27:30;2.53;;;1.52;;
3587;SDS011;1808;53.596;9.972;2022-07-23T03:29:57;6.88;;;1.70;;
3587;SDS011;1808;53.596;9.972;2022-07-23T03:32:24;3.30;;;1.70;;
3587;SDS011;1808;53.596;9.972;2022-07-23T03:34:51;3.60;;;1.50;;
3587;SDS011;1808;53.596;9.972;2022-07-23T03:37:18;5.28;;;1.48;;
3587;SDS011;1808;53.596;9.972;2022-07-23T03:39:46;5.97;;;1.70;;
3587;SDS011;1808;53.596;9.972;2022-07-23T03:42:13;4.57;;;1.80;;
3587;SDS011;1808;53.596;9.972;2022-07-23T03:44:39;6.38;;;1.70;;
3587;SDS011;1808;53.596;9.972;2022-07-23T03:47:05;3.45;;;1.95;;
3587;SDS011;1808;53.596;9.972;2022-07-23T03:49:32;4.97;;;1.73;;
3587;SDS011;1808;53.596;9.972;2022-07-23T03:51:59;5.82;;;2.40;;
3587;SDS011;1808;53.596;9.972;2022-07-23T03:54:26;4.97;;;2.45;;
3587;SDS011;1808;53.596;9.972;2022-07-23T03:56:53;6.20;;;1.70;;
3587;SDS011;1808;53.596;9.972;2022-07-23T03:59:20;6.05;;;2.05;;
3587;SDS011;1808;53.596;9.972;2022-07-23T04:01:46;4.15;;;1.80;;
3587;SDS011;1808;53.596;9.972;2022-07-23T04:04:12;3.60;;;1.73;;
3587;SDS011;1808;53.596;9.972;2022-07-23T04:06:39;5.68;;;2.50;;
3587;SDS011;1808;53.596;9.972;2022-07-23T04:09:05;6.63;;;1.90;;
3587;SDS011;1808;53.596;9.972;2022-07-23T04:11:31;4.47;;;2.38;;
3587;SDS011;1808;53.596;9.972;2022-07-23T04:13:59;3.35;;;1.88;;
3587;SDS011;1808;53.596;9.972;2022-07-23T04:16:25;6.97;;;1.95;;
3587;SDS011;1808;53.596;9.972;2022-07-23T04:18:51;9.10;;;2.08;;
3587;SDS011;1808;53.596;9.972;2022-07-23T04:21:18;5.65;;;2.00;;
3587;SDS011;1808;53.596;9.972;2022-07-23T04:23:44;4.18;;;2.15;;
3587;SDS011;1808;53.596;9.972;2022-07-23T04:26:11;4.93;;;2.03;;
3587;SDS011;1808;53.596;9.972;2022-07-23T04:28:37;4.97;;;2.00;;
3587;SDS011;1808;53.596;9.972;2022-07-23T04:31:05;4.15;;;1.65;;
3587;SDS011;1808;53.596;9.972;2022-07-23T04:33:31;7.78;;;2.85;;
3587;SDS011;1808;53.596;9.972;2022-07-23T04:35:57;5.43;;;2.13;;
3587;SDS011;1808;53.596;9.972;2022-07-23T04:38:24;5.72;;;2.13;;
3587;SDS011;1808;53.596;9.972;2022-07-23T04:40:50;6.30;;;2.50;;
3587;SDS011;1808;53.596;9.972;2022-07-23T04:43:16;4.82;;;2.20;;
3587;SDS011;1808;53.596;9.972;2022-07-23T04:45:43;4.43;;;2.88;;
3587;SDS011;1808;53.596;9.972;2022-07-23T04:48:10;9.60;;;2.78;;
3587;SDS011;1808;53.596;9.972;2022-07-23T04:50:37;6.82;;;2.85;;
3587;SDS011;1808;53.596;9.972;2022-07-23T04:53:03;7.43;;;3.00;;
3587;SDS011;1808;53.596;9.972;2022-07-23T04:55:29;7.72;;;3.13;;
3587;SDS011;1808;53.596;9.972;2022-07-23T04:57:56;4.68;;;2.42;;
3587;SDS011;1808;53.596;9.972;2022-07-23T05:00:22;6.03;;;2.78;;
3587;SDS011;1808;53.596;9.972;2022-07-23T05:02:48;8.25;;;2.35;;
3587;SDS011;1808;53.596;9.972;2022-07-23T05:05:16;5.43;;;2.47;;
3587;SDS011;1808;53.596;9.972;2022-07-23T05:07:42;5.05;;;2.17;;
3587;SDS011;1808;53.596;9.972;2022-07-23T05:10:08;4.70;;;1.65;;
3587;SDS011;1808;53.596;9.972;2022-07-23T05:12:35;5.63;;;1.90;;
3587;SDS011;1808;53.596;9.972;2022-07-23T05:15:01;5.68;;;1.88;;
3587;SDS011;1808;53.596;9.972;2022-07-23T05:17:28;3.25;;;1.70;;
3587;SDS011;1808;53.596;9.972;2022-07-23T05:19:54;6.97;;;1.80;;
3587;SDS011;1808;53.596;9.972;2022-07-23T05:22:22;5.22;;;1.63;;
3587;SDS011;1808;53.596;9.972;2022-07-23T05:24:48;4.05;;;1.48;;
3587;SDS011;1808;53.596;9.972;2022-07-23T05:27:14;3.75;;;1.40;;
3587;SDS011;1808;53.596;9.972;2022-07-23T05:29:40;4.82;;;1.60;;
3587;SDS011;1808;53.596;9.972;2022-07-23T05:32:07;3.28;;;1.30;;
3587;SDS011;1808;53.596;9.972;2022-07-23T05:34:33;6.00;;;1.60;;
3587;SDS011;1808;53.596;9.972;2022-07-23T05:36:59;3.00;;;1.08;;
3587;SDS011;1808;53.596;9.972;2022-07-23T05:39:27;2.80;;;1.30;;
3587;SDS011;1808;53.596;9.972;2022-07-23T05:41:53;4.35;;;1.45;;
3587;SDS011;1808;53.596;9.972;2022-07-23T05:44:19;3.70;;;1.50;;
3587;SDS011;1808;53.596;9.972;2022-07-23T05:46:47;2.05;;;1.10;;
3587;SDS011;1808;53.596;9.972;2022-07-23T05:49:13;3.20;;;1.50;;
3587;SDS011;1808;53.596;9.972;2022-07-23T05:51:39;2.38;;;1.23;;
3587;SDS011;1808;53.596;9.972;2022-07-23T05:54:06;3.97;;;1.27;;
3587;SDS011;1808;53.596;9.972;2022-07-23T05:56:33;4.28;;;1.25;;
3587;SDS011;1808;53.596;9.972;2022-07-23T05:59:00;3.42;;;1.60;;
3587;SDS011;1808;53.596;9.972;2022-07-23T06:01:26;5.03;;;1.30;;
3587;SDS011;1808;53.596;9.972;2022-07-23T06:03:53;4.32;;;1.30;;
3587;SDS011;1808;53.596;9.972;2022-07-23T06:06:19;4.35;;;1.35;;
3587;SDS011;1808;53.596;9.972;2022-07-23T06:08:46;3.63;;;1.20;;
3587;SDS011;1808;53.596;9.972;2022-07-23T06:11:12;3.50;;;1.45;;
3587;SDS011;1808;53.596;9.972;2022-07-23T06:13:40;8.52;;;1.42;;
3587;SDS011;1808;53.596;9.972;2022-07-23T06:16:07;3.38;;;1.50;;
3587;SDS011;1808;53.596;9.972;2022-07-23T06:18:33;3.63;;;1.70;;
3587;SDS011;1808;53.596;9.972;2022-07-23T06:20:59;5.15;;;1.73;;
3587;SDS011;1808;53.596;9.972;2022-07-23T06:23:26;4.05;;;1.92;;
3587;SDS011;1808;53.596;9.972;2022-07-23T06:25:52;5.43;;;1.60;;
3587;SDS011;1808;53.596;9.972;2022-07-23T06:28:19;3.97;;;1.55;;
3587;SDS011;1808;53.596;9.972;2022-07-23T06:30:46;4.25;;;1.40;;
3587;SDS011;1808;53.596;9.972;2022-07-23T06:33:13;6.53;;;1.63;;
3587;SDS011;1808;53.596;9.972;2022-07-23T06:35:39;4.90;;;1.50;;
3587;SDS011;1808;53.596;9.972;2022-07-23T06:38:06;3.33;;;1.42;;
3587;SDS011;1808;53.596;9.972;2022-07-23T06:40:32;3.03;;;1.25;;
3587;SDS011;1808;53.596;9.972;2022-07-23T06:42:58;6.55;;;1.65;;
3587;SDS011;1808;53.596;9.972;2022-07-23T06:45:25;3.38;;;1.63;;
3587;SDS011;1808;53.596;9.972;2022-07-23T06:47:52;4.68;;;1.60;;
3587;SDS011;1808;53.596;9.972;2022-07-23T06:50:19;4.13;;;1.77;;
3587;SDS011;1808;53.596;9.972;2022-07-23T06:52:45;4.72;;;1.63;;
3587;SDS011;1808;53.596;9.972;2022-07-23T06:55:11;4.43;;;1.63;;
3587;SDS011;1808;53.596;9.972;2022-07-23T06:57:38;2.60;;;1.38;;
3587;SDS011;1808;53.596;9.972;2022-07-23T07:00:04;5.00;;;1.20;;
3587;SDS011;1808;53.596;9.972;2022-07-23T07:02:32;4.82;;;1.67;;
3587;SDS011;1808;53.596;9.972;2022-07-23T07:05:00;5.20;;;1.48;;
3587;SDS011;1808;53.596;9.972;2022-07-23T07:07:26;4.93;;;1.45;;
3587;SDS011;1808;53.596;9.972;2022-07-23T07:09:53;3.55;;;1.30;;
3587;SDS011;1808;53.596;9.972;2022-07-23T07:12:19;5.03;;;1.50;;
3587;SDS011;1808;53.596;9.972;2022-07-23T07:14:45;6.05;;;1.35;;
3587;SDS011;1808;53.596;9.972;2022-07-23T07:17:11;5.72;;;1.60;;
3587;SDS011;1808;53.596;9.972;2022-07-23T07:19:38;4.90;;;1.25;;
3587;SDS011;1808;53.596;9.972;2022-07-23T07:22:05;3.28;;;1.25;;
3587;SDS011;1808;53.596;9.972;2022-07-23T07:24:32;6.47;;;1.23;;
3587;SDS011;1808;53.596;9.972;2022-07-23T07:26:58;4.03;;;1.30;;
3587;SDS011;1808;53.596;9.972;2022-07-23T07:29:24;4.45;;;1.30;;
3587;SDS011;1808;53.596;9.972;2022-07-23T07:31:51;4.70;;;1.15;;
3587;SDS011;1808;53.596;9.972;2022-07-23T07:34:17;1.90;;;0.80;;
3587;SDS011;1808;53.596;9.972;2022-07-23T07:36:43;1.92;;;0.80;;
3587;SDS011;1808;53.596;9.972;2022-07-23T07:39:11;4.18;;;1.30;;
3587;SDS011;1808;53.596;9.972;2022-07-23T07:41:38;3.38;;;1.10;;
3587;SDS011;1808;53.596;9.972;2022-07-23T07:44:04;3.08;;;0.95;;
3587;SDS011;1808;53.596;9.972;2022-07-23T07:46:31;3.45;;;1.10;;
3587;SDS011;1808;53.596;9.972;2022-07-23T07:48:57;3.05;;;1.00;;
3587;SDS011;1808;53.596;9.972;2022-07-23T07:51:24;3.92;;;1.05;;
3587;SDS011;1808;53.596;9.972;2022-07-23T07:53:50;1.67;;;0.80;;
3587;SDS011;1808;53.596;9.972;2022-07-23T07:56:18;3.53;;;1.10;;
3587;SDS011;1808;53.596;9.972;2022-07-23T07:58:44;2.97;;;0.70;;
3587;SDS011;1808;53.596;9.972;2022-07-23T08:01:11;2.72;;;1.00;;
3587;SDS011;1808;53.596;9.972;2022-07-23T08:03:37;4.03;;;1.08;;
3587;SDS011;1808;53.596;9.972;2022-07-23T08:06:04;3.03;;;1.10;;
3587;SDS011;1808;53.596;9.972;2022-07-23T08:08:30;3.80;;;1.15;;
3587;SDS011;1808;53.596;9.972;2022-07-23T08:10:57;5.65;;;1.42;;
3587;SDS011;1808;53.596;9.972;2022-07-23T08:13:24;2.50;;;1.20;;
3587;SDS011;1808;53.596;9.972;2022-07-23T08:15:51;3.60;;;1.63;;
3587;SDS011;1808;53.596;9.972;2022-07-23T08:18:18;5.10;;;1.70;;
3587;SDS011;1808;53.596;9.972;2022-07-23T08:20:44;4.00;;;1.45;;
3587;SDS011;1808;53.596;9.972;2022-07-23T08:23:11;2.72;;;1.48;;
3587;SDS011;1808;53.596;9.972;2022-07-23T08:25:38;3.83;;;0.90;;
3587;SDS011;1808;53.596;9.972;2022-07-23T08:28:06;1.90;;;1.00;;
3587;SDS011;1808;53.596;9.972;2022-07-23T08:30:34;3.28;;;0.98;;
3587;SDS011;1808;53.596;9.972;2022-07-23T08:33:02;3.15;;;0.90;;
3587;SDS011;1808;53.596;9.972;2022-07-23T08:35:30;3.95;;;0.90;;
3587;SDS011;1808;53.596;9.972;2022-07-23T08:37:58;3.05;;;1.08;;
3587;SDS011;1808;53.596;9.972;2022-07-23T08:40:25;3.58;;;0.65;;
3587;SDS011;1808;53.596;9.972;2022-07-23T08:42:52;1.70;;;0.70;;
3587;SDS011;1808;53.596;9.972;2022-07-23T08:45:19;3.00;;;0.88;;
3587;SDS011;1808;53.596;9.972;2022-07-23T08:47:50;2.35;;;0.50;;
3587;SDS011;1808;53.596;9.972;2022-07-23T08:50:17;3.03;;;0.57;;
3587;SDS011;1808;53.596;9.972;2022-07-23T08:52:43;1.40;;;0.70;;
3587;SDS011;1808;53.596;9.972;2022-07-23T08:55:10;5.00;;;0.55;;
3587;SDS011;1808;53.596;9.972;2022-07-23T08:57:36;2.15;;;0.60;;
3587;SDS011;1808;53.596;9.972;2022-07-23T09:00:03;3.45;;;0.63;;
3587;SDS011;1808;53.596;9.972;2022-07-23T09:02:31;2.95;;;0.70;;
3587;SDS011;1808;53.596;9.972;2022-07-23T09:04:59;2.85;;;0.80;;
3587;SDS011;1808;53.596;9.972;2022-07-23T09:07:25;1.75;;;0.70;;
3587;SDS011;1808;53.596;9.972;2022-07-23T09:10:04;5.00;;;0.70;;
3587;SDS011;1808;53.596;9.972;2022-07-23T09:12:31;2.42;;;0.65;;
3587;SDS011;1808;53.596;9.972;2022-07-23T09:14:59;3.10;;;0.77;;
3587;SDS011;1808;53.596;9.972;2022-07-23T09:17:30;2.80;;;0.75;;
3587;SDS011;1808;53.596;9.972;2022-07-23T09:20:11;2.72;;;0.73;;
3587;SDS011;1808;53.596;9.972;2022-07-23T09:22:40;1.67;;;0.60;;
3587;SDS011;1808;53.596;9.972;2022-07-23T09:25:09;1.58;;;0.80;;
3587;SDS011;1808;53.596;9.972;2022-07-23T09:27:47;2.30;;;0.80;;
3587;SDS011;1808;53.596;9.972;2022-07-23T09:30:21;1.70;;;0.73;;
3587;SDS011;1808;53.596;9.972;2022-07-23T09:33:04;3.65;;;1.10;;
3587;SDS011;1808;53.596;9.972;2022-07-23T09:35:49;2.08;;;0.90;;
3587;SDS011;1808;53.596;9.972;2022-07-23T09:38:16;3.00;;;1.00;;
3587;SDS011;1808;53.596;9.972;2022-07-23T09:40:43;2.78;;;0.90;;
3587;SDS011;1808;53.596;9.972;2022-07-23T09:43:10;5.72;;;1.33;;
3587;SDS011;1808;53.596;9.972;2022-07-23T09:45:37;3.40;;;1.00;;
3587;SDS011;1808;53.596;9.972;2022-07-23T09:48:10;2.33;;;0.80;;
3587;SDS011;1808;53.596;9.972;2022-07-23T09:50:37;1.42;;;0.70;;
3587;SDS011;1808;53.596;9.972;2022-07-23T09:53:05;4.90;;;1.40;;
3587;SDS011;1808;53.596;9.972;2022-07-23T09:55:32;5.07;;;0.93;;
3587;SDS011;1808;53.596;9.972;2022-07-23T09:58:02;2.67;;;0.93;;
3587;SDS011;1808;53.596;9.972;2022-07-23T10:00:28;2.05;;;0.98;;
3587;SDS011;1808;53.596;9.972;2022-07-23T10:02:55;2.00;;;0.82;;
3587;SDS011;1808;53.596;9.972;2022-07-23T10:05:23;2.72;;;1.20;;
3587;SDS011;1808;53.596;9.972;2022-07-23T10:07:50;2.67;;;0.90;;
3587;SDS011;1808;53.596;9.972;2022-07-23T10:10:18;1.88;;;0.75;;
3587;SDS011;1808;53.596;9.972;2022-07-23T10:12:47;2.50;;;0.80;;
3587;SDS011;1808;53.596;9.972;2022-07-23T10:15:27;1.48;;;0.80;;
3587;SDS011;1808;53.596;9.972;2022-07-23T10:17:54;2.35;;;1.08;;
3587;SDS011;1808;53.596;9.972;2022-07-23T10:20:21;3.63;;;0.93;;
3587;SDS011;1808;53.596;9.972;2022-07-23T10:22:48;2.83;;;0.95;;
3587;SDS011;1808;53.596;9.972;2022-07-23T10:25:24;2.63;;;0.82;;
3587;SDS011;1808;53.596;9.972;2022-07-23T10:27:59;2.05;;;0.60;;
3587;SDS011;1808;53.596;9.972;2022-07-23T10:30:52;2.13;;;0.52;;
3587;SDS011;1808;53.596;9.972;2022-07-23T10:33:29;2.42;;;0.70;;
3587;SDS011;1808;53.596;9.972;2022-07-23T10:35:58;1.52;;;0.63;;
3587;SDS011;1808;53.596;9.972;2022-07-23T10:38:30;2.97;;;0.70;;
3587;SDS011;1808;53.596;9.972;2022-07-23T10:40:59;2.13;;;0.77;;
3587;SDS011;1808;53.596;9.972;2022-07-23T10:43:27;4.28;;;0.90;;
3587;SDS011;1808;53.596;9.972;2022-07-23T10:45:54;3.15;;;1.00;;
3587;SDS011;1808;53.596;9.972;2022-07-23T10:48:22;2.47;;;0.90;;
3587;SDS011;1808;53.596;9.972;2022-07-23T10:51:05;2.80;;;0.65;;
3587;SDS011;1808;53.596;9.972;2022-07-23T10:59:16;2.65;;;0.70;;
3587;SDS011;1808;53.596;9.972;2022-07-23T11:01:44;1.92;;;0.70;;
3587;SDS011;1808;53.596;9.972;2022-07-23T11:04:11;1.98;;;0.60;;
3587;SDS011;1808;53.596;9.972;2022-07-23T11:09:38;2.97;;;0.77;;
3587;SDS011;1808;53.596;9.972;2022-07-23T11:12:32;2.63;;;0.70;;
3587;SDS011;1808;53.596;9.972;2022-07-23T11:15:00;2.88;;;0.90;;
3587;SDS011;1808;53.596;9.972;2022-07-23T11:17:28;3.45;;;0.73;;
3587;SDS011;1808;53.596;9.972;2022-07-23T11:22:48;1.58;;;0.93;;
3587;SDS011;1808;53.596;9.972;2022-07-23T11:25:28;1.40;;;0.50;;
3587;SDS011;1808;53.596;9.972;2022-07-23T11:28:07;2.78;;;0.70;;
3587;SDS011;1808;53.596;9.972;2022-07-23T11:30:39;4.70;;;0.70;;
3587;SDS011;1808;53.596;9.972;2022-07-23T11:33:16;1.65;;;0.60;;
3587;SDS011;1808;53.596;9.972;2022-07-23T11:35:44;1.40;;;0.63;;
3587;SDS011;1808;53.596;9.972;2022-07-23T11:38:13;1.90;;;0.60;;
3587;SDS011;1808;53.596;9.972;2022-07-23T11:40:40;1.00;;;0.47;;
3587;SDS011;1808;53.596;9.972;2022-07-23T11:43:09;2.53;;;0.75;;
3587;SDS011;1808;53.596;9.972;2022-07-23T11:45:37;4.68;;;0.80;;
3587;SDS011;1808;53.596;9.972;2022-07-23T11:48:05;2.45;;;0.77;;
3587;SDS011;1808;53.596;9.972;2022-07-23T11:50:32;2.22;;;0.90;;
3587;SDS011;1808;53.596;9.972;2022-07-23T11:52:59;3.42;;;1.00;;
3587;SDS011;1808;53.596;9.972;2022-07-23T11:55:26;3.58;;;1.13;;
3587;SDS011;1808;53.596;9.972;2022-07-23T11:57:53;2.92;;;0.73;;
3587;SDS011;1808;53.596;9.972;2022-07-23T12:00:22;2.30;;;0.80;;
3587;SDS011;1808;53.596;9.972;2022-07-23T12:02:50;2.10;;;0.90;;
3587;SDS011;1808;53.596;9.972;2022-07-23T12:05:19;3.92;;;1.00;;
3587;SDS011;1808;53.596;9.972;2022-07-23T12:07:47;2.53;;;0.88;;
3587;SDS011;1808;53.596;9.972;2022-07-23T12:10:17;4.05;;;1.10;;
3587;SDS011;1808;53.596;9.972;2022-07-23T12:12:45;2.53;;;1.00;;
3587;SDS011;1808;53.596;9.972;2022-07-23T12:15:14;4.13;;;0.90;;
3587;SDS011;1808;53.596;9.972;2022-07-23T12:17:44;2.20;;;0.90;;
3587;SDS011;1808;53.596;9.972;2022-07-23T12:20:13;4.90;;;1.02;;
3587;SDS011;1808;53.596;9.972;2022-07-23T12:22:41;3.13;;;1.00;;
3587;SDS011;1808;53.596;9.972;2022-07-23T12:25:09;2.05;;;0.85;;
3587;SDS011;1808;53.596;9.972;2022-07-23T12:27:37;3.40;;;1.02;;
3587;SDS011;1808;53.596;9.972;2022-07-23T12:30:17;2.88;;;0.98;;
3587;SDS011;1808;53.596;9.972;2022-07-23T12:32:49;4.32;;;1.20;;
3587;SDS011;1808;53.596;9.972;2022-07-23T12:35:16;3.55;;;1.27;;
3587;SDS011;1808;53.596;9.972;2022-07-23T12:37:44;2.75;;;1.10;;
3587;SDS011;1808;53.596;9.972;2022-07-23T12:40:25;3.38;;;1.05;;
3587;SDS011;1808;53.596;9.972;2022-07-23T12:42:53;3.45;;;1.08;;
3587;SDS011;1808;53.596;9.972;2022-07-23T12:45:21;2.20;;;0.75;;
3587;SDS011;1808;53.596;9.972;2022-07-23T12:47:54;4.20;;;0.82;;
3587;SDS011;1808;53.596;9.972;2022-07-23T12:50:32;3.47;;;0.98;;
3587;SDS011;1808;53.596;9.972;2022-07-23T12:53:03;3.40;;;0.93;;
3587;SDS011;1808;53.596;9.972;2022-07-23T12:55:31;2.55;;;0.82;;
3587;SDS011;1808;53.596;9.972;2022-07-23T12:58:02;4.63;;;0.90;;
3587;SDS011;1808;53.596;9.972;2022-07-23T13:00:30;3.70;;;0.90;;
3587;SDS011;1808;53.596;9.972;2022-07-23T13:02:58;3.58;;;0.77;;
3587;SDS011;1808;53.596;9.972;2022-07-23T13:05:25;2.58;;;1.00;;
3587;SDS011;1808;53.596;9.972;2022-07-23T13:07:51;4.78;;;1.05;;
3587;SDS011;1808;53.596;9.972;2022-07-23T13:10:17;3.45;;;1.13;;
3587;SDS011;1808;53.596;9.972;2022-07-23T13:12:43;3.08;;;1.00;;
3587;SDS011;1808;53.596;9.972;2022-07-23T13:15:10;2.00;;;0.82;;
3587;SDS011;1808;53.596;9.972;2022-07-23T13:17:36;1.70;;;0.80;;
3587;SDS011;1808;53.596;9.972;2022-07-23T13:20:04;3.67;;;1.10;;
3587;SDS011;1808;53.596;9.972;2022-07-23T13:22:32;2.00;;;0.90;;
3587;SDS011;1808;53.596;9.972;2022-07-23T13:24:58;2.03;;;0.90;;
3587;SDS011;1808;53.596;9.972;2022-07-23T13:27:25;3.85;;;0.93;;
3587;SDS011;1808;53.596;9.972;2022-07-23T13:29:51;2.85;;;0.80;;
3587;SDS011;1808;53.596;9.972;2022-07-23T13:32:17;2.65;;;0.90;;
3587;SDS011;1808;53.596;9.972;2022-07-23T13:34:44;2.47;;;0.70;;
3587;SDS011;1808;53.596;9.972;2022-07-23T13:37:11;2.53;;;0.90;;
3587;SDS011;1808;53.596;9.972;2022-07-23T13:39:38;3.97;;;1.00;;
3587;SDS011;1808;53.596;9.972;2022-07-23T13:42:04;2.83;;;0.80;;
3587;SDS011;1808;53.596;9.972;2022-07-23T13:44:31;2.30;;;0.90;;
3587;SDS011;1808;53.596;9.972;2022-07-23T13:46:58;2.67;;;0.98;;
3587;SDS011;1808;53.596;9.972;2022-07-23T13:49:24;3.25;;;1.00;;
3587;SDS011;1808;53.596;9.972;2022-07-23T13:51:50;3.63;;;1.23;;
3587;SDS011;1808;53.596;9.972;2022-07-23T13:54:18;3.80;;;1.17;;
3587;SDS011;1808;53.596;9.972;2022-07-23T13:56:44;4.43;;;1.35;;
3587;SDS011;1808;53.596;9.972;2022-07-23T13:59:10;6.03;;;1.33;;
3587;SDS011;1808;53.596;9.972;2022-07-23T14:01:37;5.88;;;1.30;;
3587;SDS011;1808;53.596;9.972;2022-07-23T14:04:03;4.85;;;1.73;;
3587;SDS011;1808;53.596;9.972;2022-07-23T14:06:30;3.25;;;1.05;;
3587;SDS011;1808;53.596;9.972;2022-07-23T14:08:56;3.15;;;1.10;;
3587;SDS011;1808;53.596;9.972;2022-07-23T14:11:24;2.60;;;1.00;;
3587;SDS011;1808;53.596;9.972;2022-07-23T14:13:50;3.47;;;0.88;;
3587;SDS011;1808;53.596;9.972;2022-07-23T14:16:16;2.10;;;0.90;;
3587;SDS011;1808;53.596;9.972;2022-07-23T14:18:43;2.13;;;0.80;;
3587;SDS011;1808;53.596;9.972;2022-07-23T14:21:09;1.40;;;0.60;;
3587;SDS011;1808;53.596;9.972;2022-07-23T14:23:36;2.15;;;0.80;;
3587;SDS011;1808;53.596;9.972;2022-07-23T14:26:02;1.67;;;0.80;;
3587;SDS011;1808;53.596;9.972;2022-07-23T14:28:30;2.47;;;0.80;;
3587;SDS011;1808;53.596;9.972;2022-07-23T14:30:58;3.08;;;1.08;;
3587;SDS011;1808;53.596;9.972;2022-07-23T14:33:24;2.67;;;1.00;;
3587;SDS011;1808;53.596;9.972;2022-07-23T14:35:51;3.05;;;0.90;;
3587;SDS011;1808;53.596;9.972;2022-07-23T14:38:17;2.72;;;1.00;;
3587;SDS011;1808;53.596;9.972;2022-07-23T14:40:44;2.92;;;1.00;;
3587;SDS011;1808;53.596;9.972;2022-07-23T14:43:10;2.67;;;0.98;;
3587;SDS011;1808;53.596;9.972;2022-07-23T14:45:38;7.57;;;1.40;;
3587;SDS011;1808;53.596;9.972;2022-07-23T14:48:04;4.70;;;0.95;;
3587;SDS011;1808;53.596;9.972;2022-07-23T14:50:31;3.83;;;1.17;;
3587;SDS011;1808;53.596;9.972;2022-07-23T14:52:57;2.63;;;0.90;;
3587;SDS011;1808;53.596;9.972;2022-07-23T14:55:24;4.53;;;1.10;;
3587;SDS011;1808;53.596;9.972;2022-07-23T14:57:50;2.60;;;0.80;;
3587;SDS011;1808;53.596;9.972;2022-07-23T15:00:17;3.83;;;0.90;;
3587;SDS011;1808;53.596;9.972;2022-07-23T15:02:45;2.25;;;0.80;;
3587;SDS011;1808;53.596;9.972;2022-07-23T15:05:11;3.35;;;1.00;;
3587;SDS011;1808;53.596;9.972;2022-07-23T15:07:37;3.95;;;1.10;;
3587;SDS011;1808;53.596;9.972;2022-07-23T15:10:04;3.30;;;0.90;;
3587;SDS011;1808;53.596;9.972;2022-07-23T15:12:31;1.67;;;0.90;;
3587;SDS011;1808;53.596;9.972;2022-07-23T15:14:58;6.80;;;1.27;;
3587;SDS011;1808;53.596;9.972;2022-07-23T15:17:24;3.00;;;1.13;;
3587;SDS011;1808;53.596;9.972;2022-07-23T15:19:52;4.07;;;1.10;;
3587;SDS011;1808;53.596;9.972;2022-07-23T15:22:18;4.07;;;1.00;;
3587;SDS011;1808;53.596;9.972;2022-07-23T15:24:45;3.35;;;1.33;;
3587;SDS011;1808;53.596;9.972;2022-07-23T15:27:11;3.42;;;1.00;;
3587;SDS011;1808;53.596;9.972;2022-07-23T15:29:37;3.80;;;1.02;;